createdAt,value
2023-03-22T00:04:29.385Z,6.07
2023-03-22T00:09:31.844Z,6.03
2023-03-22T00:14:33.684Z,5.65
2023-03-22T00:19:35.461Z,5.70
2023-03-22T00:24:37.826Z,5.00
2023-03-22T00:29:39.607Z,5.03
2023-03-22T00:34:41.512Z,5.50
2023-03-22T00:39:46.181Z,5.15
2023-03-22T00:44:47.962Z,5.22
2023-03-22T00:49:49.783Z,4.53
2023-03-22T00:54:51.587Z,4.57
2023-03-22T00:59:53.998Z,4.68
2023-03-22T01:04:56.554Z,4.55
2023-03-22T01:09:58.387Z,4.22
2023-03-22T01:15:00.302Z,3.92
2023-03-22T01:20:02.173Z,3.65
2023-03-22T01:25:04.441Z,4.03
2023-03-22T01:30:07.283Z,3.75
2023-03-22T01:35:10.116Z,4.13
2023-03-22T01:40:13.898Z,3.92
2023-03-22T01:45:16.704Z,3.78
2023-03-22T01:50:19.457Z,3.65
2023-03-22T01:55:22.891Z,3.50
2023-03-22T02:00:24.714Z,3.22
2023-03-22T02:05:26.985Z,2.72
2023-03-22T02:10:29.149Z,3.38
2023-03-22T02:16:01.543Z,3.40
2023-03-22T02:21:21.681Z,3.33
2023-03-22T02:26:59.600Z,2.85
2023-03-22T02:32:39.129Z,3.40
2023-03-22T02:38:05.770Z,2.70
2023-03-22T02:43:13.568Z,3.00
2023-03-22T02:48:32.612Z,3.15
2023-03-22T02:53:42.120Z,2.83
2023-03-22T02:58:51.236Z,2.63
2023-03-22T03:04:01.222Z,3.13
2023-03-22T03:09:05.221Z,2.97
2023-03-22T03:14:06.992Z,2.60
2023-03-22T03:19:25.468Z,3.50
2023-03-22T03:24:43.720Z,2.50
2023-03-22T03:29:49.289Z,2.83
2023-03-22T03:35:01.340Z,2.80
2023-03-22T03:40:09.855Z,2.53
2023-03-22T03:45:12.537Z,2.83
2023-03-22T03:50:16.212Z,2.47
2023-03-22T03:55:18.216Z,2.13
2023-03-22T04:00:20.197Z,1.85
2023-03-22T04:05:21.953Z,2.47
2023-03-22T04:10:23.845Z,2.20
2023-03-22T04:15:25.787Z,2.25
2023-03-22T04:20:27.704Z,2.40
2023-03-22T04:25:29.981Z,2.58
2023-03-22T04:30:36.369Z,2.70
2023-03-22T04:35:38.460Z,2.33
2023-03-22T04:40:46.487Z,2.95
2023-03-22T04:45:48.940Z,3.15
2023-03-22T04:50:53.364Z,3.08
2023-03-22T04:55:58.700Z,2.25
2023-03-22T05:01:00.649Z,3.13
2023-03-22T05:06:04.710Z,2.88
2023-03-22T05:11:20.288Z,2.80
2023-03-22T05:16:22.573Z,2.58
2023-03-22T05:21:28.667Z,2.83
2023-03-22T05:26:30.529Z,2.53
2023-03-22T05:31:34.534Z,3.38
2023-03-22T05:36:39.065Z,3.28
2023-03-22T05:41:41.173Z,2.70
2023-03-22T05:46:43.022Z,3.22
2023-03-22T05:51:44.825Z,3.05
2023-03-22T05:56:47.377Z,2.83
2023-03-22T06:01:49.235Z,3.05
2023-03-22T06:06:51.496Z,3.10
2023-03-22T06:11:53.613Z,3.00
2023-03-22T06:16:55.835Z,3.13
2023-03-22T06:21:57.703Z,2.78
2023-03-22T06:26:59.590Z,2.10
2023-03-22T06:32:02.255Z,2.20
2023-03-22T06:37:04.724Z,2.90
2023-03-22T06:42:06.488Z,2.58
2023-03-22T06:47:08.904Z,2.70
2023-03-22T06:52:10.894Z,2.70
2023-03-22T06:57:12.985Z,2.45
2023-03-22T07:02:14.839Z,2.70
2023-03-22T07:07:16.988Z,3.55
2023-03-22T07:12:18.748Z,2.75
2023-03-22T07:17:20.875Z,2.13
2023-03-22T07:22:22.992Z,2.50
2023-03-22T07:27:25.368Z,2.13
2023-03-22T07:32:27.271Z,1.92
2023-03-22T07:37:29.301Z,2.38
2023-03-22T07:42:31.774Z,1.80
2023-03-22T07:47:40.875Z,1.85
2023-03-22T07:52:44.941Z,2.65
2023-03-22T07:57:46.775Z,2.25
2023-03-22T08:02:48.653Z,1.98
2023-03-22T08:07:51.569Z,1.70
2023-03-22T08:12:53.374Z,1.77
2023-03-22T08:17:58.126Z,2.20
2023-03-22T08:23:00.175Z,1.88
2023-03-22T08:28:02.024Z,2.08
2023-03-22T08:33:04.365Z,1.65
2023-03-22T08:38:06.557Z,1.67
2023-03-22T08:43:08.355Z,1.70
2023-03-22T08:48:10.270Z,2.47
2023-03-22T08:53:13.891Z,1.75
2023-03-22T08:58:16.613Z,2.00
2023-03-22T09:03:18.601Z,1.75
2023-03-22T09:08:21.149Z,2.00
2023-03-22T09:13:22.956Z,2.03
2023-03-22T09:18:25.377Z,1.88
2023-03-22T09:23:27.218Z,1.25
2023-03-22T09:28:30.055Z,1.60
2023-03-22T09:33:32.395Z,1.70
2023-03-22T09:38:35.740Z,1.75
2023-03-22T09:43:44.787Z,1.70
2023-03-22T09:48:49.462Z,1.50
2023-03-22T09:53:51.362Z,1.75
2023-03-22T09:59:22.882Z,1.33
2023-03-22T10:04:31.169Z,2.03
2023-03-22T10:09:56.517Z,1.73
2023-03-22T10:15:14.049Z,1.20
2023-03-22T10:20:21.835Z,1.85
2023-03-22T10:25:31.054Z,1.27
2023-03-22T10:30:40.152Z,1.60
2023-03-22T10:35:44.364Z,1.17
2023-03-22T10:40:47.408Z,1.33
2023-03-22T10:45:50.909Z,1.40
2023-03-22T10:50:54.448Z,2.28
2023-03-22T10:55:56.681Z,1.65
2023-03-22T11:01:11.002Z,1.50
2023-03-22T11:06:12.836Z,1.52
2023-03-22T11:11:19.754Z,1.48
2023-03-22T11:16:23.319Z,1.65
2023-03-22T11:21:31.238Z,1.85
2023-03-22T11:26:40.709Z,1.48
2023-03-22T11:32:00.357Z,0.90
2023-03-22T11:37:07.636Z,2.45
2023-03-22T11:42:21.191Z,1.60
2023-03-22T11:47:26.318Z,1.60
2023-03-22T11:52:28.203Z,1.83
2023-03-22T11:57:33.926Z,2.25
2023-03-22T12:02:41.828Z,1.50
2023-03-22T12:07:44.033Z,2.00
2023-03-22T12:12:59.063Z,2.22
2023-03-22T12:18:10.058Z,1.95
2023-03-22T12:23:20.756Z,2.45
2023-03-22T12:33:37.370Z,1.80
2023-03-22T12:38:54.078Z,1.67
2023-03-22T12:44:01.990Z,1.55
2023-03-22T12:49:13.794Z,2.08
2023-03-22T12:54:17.897Z,2.05
2023-03-22T12:59:28.576Z,1.83
2023-03-22T13:09:40.409Z,2.03
2023-03-22T13:15:02.016Z,1.65
2023-03-22T13:20:06.981Z,1.90
2023-03-22T13:25:16.964Z,2.08
2023-03-22T13:30:21.930Z,1.75
2023-03-22T13:35:34.509Z,2.58
2023-03-22T13:40:45.547Z,2.25
2023-03-22T13:45:59.453Z,2.40
2023-03-22T13:51:15.676Z,1.63
2023-03-22T13:56:47.700Z,2.13
2023-03-22T14:01:57.480Z,1.58
2023-03-22T14:07:07.054Z,1.80
2023-03-22T14:12:33.976Z,2.15
2023-03-22T14:17:54.462Z,2.17
